sensor_id;sensor_type;location;lat;lon;timestamp;temperature;humidity
11497;DHT22;5805;51.542;7.230;2023-01-29T00:02:16;1.80;99.90
11497;DHT22;5805;51.542;7.230;2023-01-29T00:04:42;1.70;99.90
11497;DHT22;5805;51.542;7.230;2023-01-29T00:07:08;1.70;99.90
11497;DHT22;5805;51.542;7.230;2023-01-29T00:09:33;2.00;99.90
11497;DHT22;5805;51.542;7.230;2023-01-29T00:11:59;1.70;99.90
11497;DHT22;5805;51.542;7.230;2023-01-29T00:14:27;1.70;99.90
11497;DHT22;5805;51.542;7.230;2023-01-29T00:16:53;1.70;99.90
11497;DHT22;5805;51.542;7.230;2023-01-29T00:19:20;1.70;99.90
11497;DHT22;5805;51.542;7.230;2023-01-29T00:21:46;1.70;99.90
11497;DHT22;5805;51.542;7.230;2023-01-29T00:24:12;2.10;99.90
11497;DHT22;5805;51.542;7.230;2023-01-29T00:26:37;1.60;99.90
11497;DHT22;5805;51.542;7.230;2023-01-29T00:29:03;1.90;99.90
11497;DHT22;5805;51.542;7.230;2023-01-29T00:31:29;1.60;99.90
11497;DHT22;5805;51.542;7.230;2023-01-29T00:33:55;1.70;99.90
11497;DHT22;5805;51.542;7.230;2023-01-29T00:36:23;1.70;99.90
11497;DHT22;5805;51.542;7.230;2023-01-29T00:38:53;1.70;99.90
11497;DHT22;5805;51.542;7.230;2023-01-29T00:41:20;1.70;99.90
11497;DHT22;5805;51.542;7.230;2023-01-29T00:43:46;2.20;99.90
11497;DHT22;5805;51.542;7.230;2023-01-29T00:46:11;1.60;99.90
11497;DHT22;5805;51.542;7.230;2023-01-29T00:48:37;1.60;99.90
11497;DHT22;5805;51.542;7.230;2023-01-29T00:51:03;1.60;99.90
11497;DHT22;5805;51.542;7.230;2023-01-29T00:53:30;1.60;99.90
11497;DHT22;5805;51.542;7.230;2023-01-29T00:55:56;1.60;99.90
11497;DHT22;5805;51.542;7.230;2023-01-29T00:58:21;1.60;99.90
11497;DHT22;5805;51.542;7.230;2023-01-29T01:00:47;1.60;99.90
11497;DHT22;5805;51.542;7.230;2023-01-29T01:03:13;1.60;99.90
11497;DHT22;5805;51.542;7.230;2023-01-29T01:05:38;1.60;99.90
11497;DHT22;5805;51.542;7.230;2023-01-29T01:08:04;1.60;99.90
11497;DHT22;5805;51.542;7.230;2023-01-29T01:10:32;1.80;99.90
11497;DHT22;5805;51.542;7.230;2023-01-29T01:13:00;1.60;99.90
11497;DHT22;5805;51.542;7.230;2023-01-29T01:15:28;1.60;99.90
11497;DHT22;5805;51.542;7.230;2023-01-29T01:17:56;1.60;99.90
11497;DHT22;5805;51.542;7.230;2023-01-29T01:20:23;1.60;99.90
11497;DHT22;5805;51.542;7.230;2023-01-29T01:22:49;1.60;99.90
11497;DHT22;5805;51.542;7.230;2023-01-29T01:25:15;1.60;99.90
11497;DHT22;5805;51.542;7.230;2023-01-29T01:27:42;1.60;99.90
11497;DHT22;5805;51.542;7.230;2023-01-29T01:30:11;1.60;99.90
11497;DHT22;5805;51.542;7.230;2023-01-29T01:32:38;1.60;99.90
11497;DHT22;5805;51.542;7.230;2023-01-29T01:35:05;2.30;99.90
11497;DHT22;5805;51.542;7.230;2023-01-29T01:37:30;1.50;99.90
11497;DHT22;5805;51.542;7.230;2023-01-29T01:39:56;1.50;99.90
11497;DHT22;5805;51.542;7.230;2023-01-29T01:42:22;1.40;99.90
11497;DHT22;5805;51.542;7.230;2023-01-29T01:45:04;1.50;99.90
11497;DHT22;5805;51.542;7.230;2023-01-29T01:47:36;1.50;99.90
11497;DHT22;5805;51.542;7.230;2023-01-29T01:50:06;1.50;99.90
11497;DHT22;5805;51.542;7.230;2023-01-29T01:52:36;1.50;99.90
11497;DHT22;5805;51.542;7.230;2023-01-29T01:55:03;1.40;99.90
11497;DHT22;5805;51.542;7.230;2023-01-29T01:57:30;1.40;99.90
11497;DHT22;5805;51.542;7.230;2023-01-29T02:00:04;1.40;99.90
11497;DHT22;5805;51.542;7.230;2023-01-29T02:02:30;1.40;99.90
11497;DHT22;5805;51.542;7.230;2023-01-29T02:04:55;1.40;99.90
11497;DHT22;5805;51.542;7.230;2023-01-29T02:07:21;1.40;99.90
11497;DHT22;5805;51.542;7.230;2023-01-29T02:09:50;1.40;99.90
11497;DHT22;5805;51.542;7.230;2023-01-29T02:12:17;1.40;99.90
11497;DHT22;5805;51.542;7.230;2023-01-29T02:14:44;1.70;99.90
11497;DHT22;5805;51.542;7.230;2023-01-29T02:17:13;1.40;99.90
11497;DHT22;5805;51.542;7.230;2023-01-29T02:19:45;1.40;99.90
11497;DHT22;5805;51.542;7.230;2023-01-29T02:22:26;1.40;99.90
11497;DHT22;5805;51.542;7.230;2023-01-29T02:25:17;1.40;99.90
11497;DHT22;5805;51.542;7.230;2023-01-29T02:28:23;1.40;99.90
11497;DHT22;5805;51.542;7.230;2023-01-29T02:30:55;1.40;99.90
11497;DHT22;5805;51.542;7.230;2023-01-29T02:33:31;1.30;99.90
11497;DHT22;5805;51.542;7.230;2023-01-29T02:36:13;1.30;99.90
11497;DHT22;5805;51.542;7.230;2023-01-29T02:38:49;1.40;99.90
11497;DHT22;5805;51.542;7.230;2023-01-29T02:41:22;1.30;99.90
11497;DHT22;5805;51.542;7.230;2023-01-29T02:43:55;1.30;99.90
11497;DHT22;5805;51.542;7.230;2023-01-29T02:46:28;1.30;99.90
11497;DHT22;5805;51.542;7.230;2023-01-29T02:49:01;1.30;99.90
11497;DHT22;5805;51.542;7.230;2023-01-29T02:51:34;1.30;99.90
11497;DHT22;5805;51.542;7.230;2023-01-29T02:54:04;1.30;99.90
11497;DHT22;5805;51.542;7.230;2023-01-29T02:56:35;1.30;99.90
11497;DHT22;5805;51.542;7.230;2023-01-29T02:59:06;1.30;99.90
11497;DHT22;5805;51.542;7.230;2023-01-29T03:01:37;1.20;99.90
11497;DHT22;5805;51.542;7.230;2023-01-29T03:04:09;1.20;99.90
11497;DHT22;5805;51.542;7.230;2023-01-29T03:06:38;1.20;99.90
11497;DHT22;5805;51.542;7.230;2023-01-29T03:09:09;1.20;99.90
11497;DHT22;5805;51.542;7.230;2023-01-29T03:11:38;1.20;99.90
11497;DHT22;5805;51.542;7.230;2023-01-29T03:14:08;1.20;99.90
11497;DHT22;5805;51.542;7.230;2023-01-29T03:16:39;1.20;99.90
11497;DHT22;5805;51.542;7.230;2023-01-29T03:19:08;1.20;99.90
11497;DHT22;5805;51.542;7.230;2023-01-29T03:21:39;1.10;99.90
11497;DHT22;5805;51.542;7.230;2023-01-29T03:24:08;1.20;99.90
11497;DHT22;5805;51.542;7.230;2023-01-29T03:26:35;1.20;99.90
11497;DHT22;5805;51.542;7.230;2023-01-29T03:29:02;1.20;99.90
11497;DHT22;5805;51.542;7.230;2023-01-29T03:31:31;1.20;99.90
11497;DHT22;5805;51.542;7.230;2023-01-29T03:34:00;1.20;99.90
11497;DHT22;5805;51.542;7.230;2023-01-29T03:36:33;1.20;99.90
11497;DHT22;5805;51.542;7.230;2023-01-29T03:39:00;1.20;99.90
11497;DHT22;5805;51.542;7.230;2023-01-29T03:41:31;1.20;99.90
11497;DHT22;5805;51.542;7.230;2023-01-29T03:44:07;1.20;99.90
11497;DHT22;5805;51.542;7.230;2023-01-29T03:46:40;1.20;99.90
11497;DHT22;5805;51.542;7.230;2023-01-29T03:49:14;1.20;99.90
11497;DHT22;5805;51.542;7.230;2023-01-29T03:51:49;1.20;99.90
11497;DHT22;5805;51.542;7.230;2023-01-29T03:54:22;1.20;99.90
11497;DHT22;5805;51.542;7.230;2023-01-29T03:56:55;1.30;99.90
11497;DHT22;5805;51.542;7.230;2023-01-29T03:59:32;1.30;99.90
11497;DHT22;5805;51.542;7.230;2023-01-29T04:02:02;1.30;99.90
11497;DHT22;5805;51.542;7.230;2023-01-29T04:04:31;1.40;99.90
11497;DHT22;5805;51.542;7.230;2023-01-29T04:07:03;1.90;99.90
11497;DHT22;5805;51.542;7.230;2023-01-29T04:09:33;1.50;99.90
11497;DHT22;5805;51.542;7.230;2023-01-29T04:12:03;1.50;99.90
11497;DHT22;5805;51.542;7.230;2023-01-29T04:14:30;1.60;99.90
11497;DHT22;5805;51.542;7.230;2023-01-29T04:17:01;1.60;99.90
11497;DHT22;5805;51.542;7.230;2023-01-29T04:19:28;1.80;99.90
11497;DHT22;5805;51.542;7.230;2023-01-29T04:22:02;1.70;99.90
11497;DHT22;5805;51.542;7.230;2023-01-29T04:24:29;1.70;99.90
11497;DHT22;5805;51.542;7.230;2023-01-29T04:27:04;1.80;99.90
11497;DHT22;5805;51.542;7.230;2023-01-29T04:29:48;1.80;99.90
11497;DHT22;5805;51.542;7.230;2023-01-29T04:32:27;1.80;99.90
11497;DHT22;5805;51.542;7.230;2023-01-29T04:35:02;1.80;99.90
11497;DHT22;5805;51.542;7.230;2023-01-29T04:37:35;1.80;99.90
11497;DHT22;5805;51.542;7.230;2023-01-29T04:40:09;1.80;99.90
11497;DHT22;5805;51.542;7.230;2023-01-29T04:42:43;1.80;99.90
11497;DHT22;5805;51.542;7.230;2023-01-29T04:45:17;1.80;99.90
11497;DHT22;5805;51.542;7.230;2023-01-29T04:47:48;2.10;99.90
11497;DHT22;5805;51.542;7.230;2023-01-29T04:50:24;1.90;99.90
11497;DHT22;5805;51.542;7.230;2023-01-29T04:52:56;1.90;99.90
11497;DHT22;5805;51.542;7.230;2023-01-29T04:55:31;1.90;99.90
11497;DHT22;5805;51.542;7.230;2023-01-29T04:58:03;1.80;99.90
11497;DHT22;5805;51.542;7.230;2023-01-29T05:00:33;1.90;99.90
11497;DHT22;5805;51.542;7.230;2023-01-29T05:03:01;1.90;99.90
11497;DHT22;5805;51.542;7.230;2023-01-29T05:05:27;1.90;99.90
11497;DHT22;5805;51.542;7.230;2023-01-29T05:07:56;2.00;99.90
11497;DHT22;5805;51.542;7.230;2023-01-29T05:10:22;2.00;99.90
11497;DHT22;5805;51.542;7.230;2023-01-29T05:12:53;2.00;99.90
11497;DHT22;5805;51.542;7.230;2023-01-29T05:15:25;2.00;99.90
11497;DHT22;5805;51.542;7.230;2023-01-29T05:17:52;2.00;99.90
11497;DHT22;5805;51.542;7.230;2023-01-29T05:20:19;2.00;99.90
11497;DHT22;5805;51.542;7.230;2023-01-29T05:22:45;2.00;99.90
11497;DHT22;5805;51.542;7.230;2023-01-29T05:25:21;2.00;99.90
11497;DHT22;5805;51.542;7.230;2023-01-29T05:27:48;2.00;99.90
11497;DHT22;5805;51.542;7.230;2023-01-29T05:30:14;2.00;99.90
11497;DHT22;5805;51.542;7.230;2023-01-29T05:32:40;2.00;99.90
11497;DHT22;5805;51.542;7.230;2023-01-29T05:35:06;2.00;99.90
11497;DHT22;5805;51.542;7.230;2023-01-29T05:37:33;2.00;99.90
11497;DHT22;5805;51.542;7.230;2023-01-29T05:39:59;2.10;99.90
11497;DHT22;5805;51.542;7.230;2023-01-29T05:42:25;2.10;99.90
11497;DHT22;5805;51.542;7.230;2023-01-29T05:44:50;2.10;99.90
11497;DHT22;5805;51.542;7.230;2023-01-29T05:47:18;2.10;99.90
11497;DHT22;5805;51.542;7.230;2023-01-29T05:49:43;2.10;99.90
11497;DHT22;5805;51.542;7.230;2023-01-29T05:52:09;2.10;99.90
11497;DHT22;5805;51.542;7.230;2023-01-29T05:54:36;2.10;99.90
11497;DHT22;5805;51.542;7.230;2023-01-29T05:57:02;2.10;99.90
11497;DHT22;5805;51.542;7.230;2023-01-29T05:59:28;2.10;99.90
11497;DHT22;5805;51.542;7.230;2023-01-29T06:01:53;2.20;99.90
11497;DHT22;5805;51.542;7.230;2023-01-29T06:04:19;2.20;99.90
11497;DHT22;5805;51.542;7.230;2023-01-29T06:06:44;2.20;99.90
11497;DHT22;5805;51.542;7.230;2023-01-29T06:09:10;2.20;99.90
11497;DHT22;5805;51.542;7.230;2023-01-29T06:11:37;2.20;99.90
11497;DHT22;5805;51.542;7.230;2023-01-29T06:14:03;2.30;99.90
11497;DHT22;5805;51.542;7.230;2023-01-29T06:16:29;2.30;99.90
11497;DHT22;5805;51.542;7.230;2023-01-29T06:18:54;2.30;99.90
11497;DHT22;5805;51.542;7.230;2023-01-29T06:21:20;2.30;99.90
11497;DHT22;5805;51.542;7.230;2023-01-29T06:23:46;2.60;99.90
11497;DHT22;5805;51.542;7.230;2023-01-29T06:26:13;2.30;99.90
11497;DHT22;5805;51.542;7.230;2023-01-29T06:28:41;3.20;99.90
11497;DHT22;5805;51.542;7.230;2023-01-29T06:31:07;2.40;99.90
11497;DHT22;5805;51.542;7.230;2023-01-29T06:33:33;2.40;99.90
11497;DHT22;5805;51.542;7.230;2023-01-29T06:36:00;2.40;99.90
11497;DHT22;5805;51.542;7.230;2023-01-29T06:38:26;2.40;99.90
11497;DHT22;5805;51.542;7.230;2023-01-29T06:40:54;2.40;99.90
11497;DHT22;5805;51.542;7.230;2023-01-29T06:43:20;2.40;99.90
11497;DHT22;5805;51.542;7.230;2023-01-29T06:45:49;2.50;99.90
11497;DHT22;5805;51.542;7.230;2023-01-29T06:48:15;2.40;99.90
11497;DHT22;5805;51.542;7.230;2023-01-29T06:50:41;2.50;99.90
11497;DHT22;5805;51.542;7.230;2023-01-29T06:53:07;2.40;99.90
11497;DHT22;5805;51.542;7.230;2023-01-29T06:55:33;2.50;99.90
11497;DHT22;5805;51.542;7.230;2023-01-29T06:57:58;2.50;99.90
11497;DHT22;5805;51.542;7.230;2023-01-29T07:00:24;2.50;99.90
11497;DHT22;5805;51.542;7.230;2023-01-29T07:02:53;2.50;99.90
11497;DHT22;5805;51.542;7.230;2023-01-29T07:05:19;3.10;99.90
11497;DHT22;5805;51.542;7.230;2023-01-29T07:07:44;2.50;99.90
11497;DHT22;5805;51.542;7.230;2023-01-29T07:10:10;2.60;99.90
11497;DHT22;5805;51.542;7.230;2023-01-29T07:12:36;2.90;99.90
11497;DHT22;5805;51.542;7.230;2023-01-29T07:15:02;2.60;99.90
11497;DHT22;5805;51.542;7.230;2023-01-29T07:17:27;2.60;99.90
11497;DHT22;5805;51.542;7.230;2023-01-29T07:19:55;2.60;99.90
11497;DHT22;5805;51.542;7.230;2023-01-29T07:22:20;2.60;99.90
11497;DHT22;5805;51.542;7.230;2023-01-29T07:24:46;2.60;99.90
11497;DHT22;5805;51.542;7.230;2023-01-29T07:27:12;2.60;99.90
11497;DHT22;5805;51.542;7.230;2023-01-29T07:29:37;2.60;99.90
11497;DHT22;5805;51.542;7.230;2023-01-29T07:32:03;2.60;99.90
11497;DHT22;5805;51.542;7.230;2023-01-29T07:34:29;2.70;99.90
11497;DHT22;5805;51.542;7.230;2023-01-29T07:36:56;2.80;99.90
11497;DHT22;5805;51.542;7.230;2023-01-29T07:39:22;2.90;99.90
11497;DHT22;5805;51.542;7.230;2023-01-29T07:41:47;3.00;99.90
11497;DHT22;5805;51.542;7.230;2023-01-29T07:44:13;3.10;99.90
11497;DHT22;5805;51.542;7.230;2023-01-29T07:46:39;3.20;99.90
11497;DHT22;5805;51.542;7.230;2023-01-29T07:49:04;3.30;99.90
11497;DHT22;5805;51.542;7.230;2023-01-29T07:51:30;3.30;99.90
11497;DHT22;5805;51.542;7.230;2023-01-29T07:53:57;3.30;99.90
11497;DHT22;5805;51.542;7.230;2023-01-29T07:56:23;3.40;99.90
11497;DHT22;5805;51.542;7.230;2023-01-29T07:58:49;3.40;99.90
11497;DHT22;5805;51.542;7.230;2023-01-29T08:01:14;3.40;99.90
11497;DHT22;5805;51.542;7.230;2023-01-29T08:03:40;4.30;99.90
11497;DHT22;5805;51.542;7.230;2023-01-29T08:06:06;3.70;99.90
11497;DHT22;5805;51.542;7.230;2023-01-29T08:08:32;3.60;99.90
11497;DHT22;5805;51.542;7.230;2023-01-29T08:11:01;3.60;99.90
11497;DHT22;5805;51.542;7.230;2023-01-29T08:13:27;3.60;99.90
11497;DHT22;5805;51.542;7.230;2023-01-29T08:15:53;3.60;99.90
11497;DHT22;5805;51.542;7.230;2023-01-29T08:18:18;3.60;99.90
11497;DHT22;5805;51.542;7.230;2023-01-29T08:20:44;3.70;99.90
11497;DHT22;5805;51.542;7.230;2023-01-29T08:23:12;3.60;99.90
11497;DHT22;5805;51.542;7.230;2023-01-29T08:25:38;3.70;99.90
11497;DHT22;5805;51.542;7.230;2023-01-29T08:28:06;3.70;99.90
11497;DHT22;5805;51.542;7.230;2023-01-29T08:30:33;3.70;99.90
11497;DHT22;5805;51.542;7.230;2023-01-29T08:32:59;3.80;99.90
11497;DHT22;5805;51.542;7.230;2023-01-29T08:35:24;3.80;99.90
11497;DHT22;5805;51.542;7.230;2023-01-29T08:37:54;4.20;99.90
11497;DHT22;5805;51.542;7.230;2023-01-29T08:40:20;3.90;99.90
11497;DHT22;5805;51.542;7.230;2023-01-29T08:42:46;3.90;99.90
11497;DHT22;5805;51.542;7.230;2023-01-29T08:45:13;3.90;99.90
11497;DHT22;5805;51.542;7.230;2023-01-29T08:47:44;3.80;99.90
11497;DHT22;5805;51.542;7.230;2023-01-29T08:50:10;3.80;99.90
11497;DHT22;5805;51.542;7.230;2023-01-29T08:52:36;3.80;99.90
11497;DHT22;5805;51.542;7.230;2023-01-29T08:55:02;3.90;99.90
11497;DHT22;5805;51.542;7.230;2023-01-29T08:57:27;3.90;99.90
11497;DHT22;5805;51.542;7.230;2023-01-29T08:59:53;3.90;99.90
11497;DHT22;5805;51.542;7.230;2023-01-29T09:02:20;3.90;99.90
11497;DHT22;5805;51.542;7.230;2023-01-29T09:04:46;4.30;99.90
11497;DHT22;5805;51.542;7.230;2023-01-29T09:07:11;4.20;99.90
11497;DHT22;5805;51.542;7.230;2023-01-29T09:09:37;4.00;99.90
11497;DHT22;5805;51.542;7.230;2023-01-29T09:12:03;4.00;99.90
11497;DHT22;5805;51.542;7.230;2023-01-29T09:14:29;4.10;99.90
11497;DHT22;5805;51.542;7.230;2023-01-29T09:16:54;4.10;99.90
11497;DHT22;5805;51.542;7.230;2023-01-29T09:19:21;4.10;99.90
11497;DHT22;5805;51.542;7.230;2023-01-29T09:21:47;4.10;99.90
11497;DHT22;5805;51.542;7.230;2023-01-29T09:24:13;4.80;99.90
11497;DHT22;5805;51.542;7.230;2023-01-29T09:26:39;4.20;99.90
11497;DHT22;5805;51.542;7.230;2023-01-29T09:29:04;4.20;99.90
11497;DHT22;5805;51.542;7.230;2023-01-29T09:31:30;4.30;99.90
11497;DHT22;5805;51.542;7.230;2023-01-29T09:33:56;4.80;99.90
11497;DHT22;5805;51.542;7.230;2023-01-29T09:36:23;4.40;99.90
11497;DHT22;5805;51.542;7.230;2023-01-29T09:38:49;4.50;99.90
11497;DHT22;5805;51.542;7.230;2023-01-29T09:41:23;4.50;99.90
11497;DHT22;5805;51.542;7.230;2023-01-29T09:43:54;4.50;99.90
11497;DHT22;5805;51.542;7.230;2023-01-29T09:46:24;4.50;99.90
11497;DHT22;5805;51.542;7.230;2023-01-29T09:48:57;4.50;99.90
11497;DHT22;5805;51.542;7.230;2023-01-29T09:51:30;4.50;99.90
11497;DHT22;5805;51.542;7.230;2023-01-29T09:54:09;4.40;99.90
11497;DHT22;5805;51.542;7.230;2023-01-29T09:56:36;4.40;99.90
11497;DHT22;5805;51.542;7.230;2023-01-29T09:59:02;4.40;99.90
11497;DHT22;5805;51.542;7.230;2023-01-29T10:01:32;4.30;99.90
11497;DHT22;5805;51.542;7.230;2023-01-29T10:04:13;4.50;99.90
11497;DHT22;5805;51.542;7.230;2023-01-29T10:06:57;4.40;99.90
11497;DHT22;5805;51.542;7.230;2023-01-29T10:12:30;5.80;99.90
11497;DHT22;5805;51.542;7.230;2023-01-29T10:15:04;4.40;99.90
11497;DHT22;5805;51.542;7.230;2023-01-29T10:17:55;4.50;99.90
11497;DHT22;5805;51.542;7.230;2023-01-29T10:20:41;4.50;99.90
11497;DHT22;5805;51.542;7.230;2023-01-29T10:23:20;4.60;99.90
11497;DHT22;5805;51.542;7.230;2023-01-29T10:25:47;4.60;99.90
11497;DHT22;5805;51.542;7.230;2023-01-29T10:28:16;4.80;99.90
11497;DHT22;5805;51.542;7.230;2023-01-29T10:30:46;4.70;99.90
11497;DHT22;5805;51.542;7.230;2023-01-29T10:33:17;6.50;99.90
11497;DHT22;5805;51.542;7.230;2023-01-29T10:35:47;4.80;99.90
11497;DHT22;5805;51.542;7.230;2023-01-29T10:38:23;4.90;99.90
11497;DHT22;5805;51.542;7.230;2023-01-29T10:40:55;4.90;99.90
11497;DHT22;5805;51.542;7.230;2023-01-29T10:43:28;5.10;99.90
11497;DHT22;5805;51.542;7.230;2023-01-29T10:46:06;5.20;99.90
11497;DHT22;5805;51.542;7.230;2023-01-29T10:48:43;5.20;99.90
11497;DHT22;5805;51.542;7.230;2023-01-29T10:51:20;5.30;99.90
11497;DHT22;5805;51.542;7.230;2023-01-29T10:53:59;5.90;99.90
11497;DHT22;5805;51.542;7.230;2023-01-29T10:56:38;5.40;99.90
11497;DHT22;5805;51.542;7.230;2023-01-29T10:59:23;5.40;99.90
11497;DHT22;5805;51.542;7.230;2023-01-29T11:01:56;5.30;99.90
11497;DHT22;5805;51.542;7.230;2023-01-29T11:04:22;5.30;99.90
11497;DHT22;5805;51.542;7.230;2023-01-29T11:06:49;5.40;99.90
11497;DHT22;5805;51.542;7.230;2023-01-29T11:09:24;5.40;99.90
11497;DHT22;5805;51.542;7.230;2023-01-29T11:11:53;5.60;99.90
11497;DHT22;5805;51.542;7.230;2023-01-29T11:14:23;5.40;99.90
11497;DHT22;5805;51.542;7.230;2023-01-29T11:16:49;5.50;99.90
11497;DHT22;5805;51.542;7.230;2023-01-29T11:19:15;5.50;99.90
11497;DHT22;5805;51.542;7.230;2023-01-29T11:21:52;5.50;99.90
11497;DHT22;5805;51.542;7.230;2023-01-29T11:24:22;5.50;99.90
11497;DHT22;5805;51.542;7.230;2023-01-29T11:26:49;5.60;99.90
11497;DHT22;5805;51.542;7.230;2023-01-29T11:29:33;5.60;99.90
11497;DHT22;5805;51.542;7.230;2023-01-29T11:32:03;5.80;99.90
11497;DHT22;5805;51.542;7.230;2023-01-29T11:34:30;5.70;99.90
11497;DHT22;5805;51.542;7.230;2023-01-29T11:36:57;5.70;99.90
11497;DHT22;5805;51.542;7.230;2023-01-29T11:39:25;5.70;99.90
11497;DHT22;5805;51.542;7.230;2023-01-29T11:41:55;5.80;99.90
11497;DHT22;5805;51.542;7.230;2023-01-29T11:44:26;5.80;99.90
11497;DHT22;5805;51.542;7.230;2023-01-29T11:46:52;6.20;99.90
11497;DHT22;5805;51.542;7.230;2023-01-29T11:49:25;5.90;99.90
11497;DHT22;5805;51.542;7.230;2023-01-29T11:51:54;5.90;99.90
11497;DHT22;5805;51.542;7.230;2023-01-29T11:54:26;6.70;99.90
11497;DHT22;5805;51.542;7.230;2023-01-29T11:56:52;5.70;99.90
11497;DHT22;5805;51.542;7.230;2023-01-29T11:59:27;5.90;99.90
11497;DHT22;5805;51.542;7.230;2023-01-29T12:01:54;6.00;99.90
11497;DHT22;5805;51.542;7.230;2023-01-29T12:04:22;7.60;99.90
11497;DHT22;5805;51.542;7.230;2023-01-29T12:06:50;5.90;99.90
11497;DHT22;5805;51.542;7.230;2023-01-29T12:09:18;5.90;99.90
11497;DHT22;5805;51.542;7.230;2023-01-29T12:11:46;5.90;99.90
11497;DHT22;5805;51.542;7.230;2023-01-29T12:14:30;5.90;99.90
11497;DHT22;5805;51.542;7.230;2023-01-29T12:17:00;5.80;99.90
11497;DHT22;5805;51.542;7.230;2023-01-29T12:19:33;6.40;99.90
11497;DHT22;5805;51.542;7.230;2023-01-29T12:22:03;5.80;99.90
11497;DHT22;5805;51.542;7.230;2023-01-29T12:24:33;5.90;99.90
11497;DHT22;5805;51.542;7.230;2023-01-29T12:27:07;5.90;99.90
11497;DHT22;5805;51.542;7.230;2023-01-29T12:29:41;8.00;99.90
11497;DHT22;5805;51.542;7.230;2023-01-29T12:32:21;6.00;99.90
11497;DHT22;5805;51.542;7.230;2023-01-29T12:34:54;6.10;99.90
11497;DHT22;5805;51.542;7.230;2023-01-29T12:37:27;6.10;99.90
11497;DHT22;5805;51.542;7.230;2023-01-29T12:39:55;6.10;99.90
11497;DHT22;5805;51.542;7.230;2023-01-29T12:42:23;6.10;99.90
11497;DHT22;5805;51.542;7.230;2023-01-29T12:44:51;6.20;99.90
11497;DHT22;5805;51.542;7.230;2023-01-29T12:47:21;6.30;99.90
11497;DHT22;5805;51.542;7.230;2023-01-29T12:49:51;7.00;99.90
11497;DHT22;5805;51.542;7.230;2023-01-29T12:52:22;6.20;99.90
11497;DHT22;5805;51.542;7.230;2023-01-29T12:54:55;6.20;99.90
11497;DHT22;5805;51.542;7.230;2023-01-29T12:57:33;6.20;99.90
11497;DHT22;5805;51.542;7.230;2023-01-29T13:00:05;6.20;99.90
11497;DHT22;5805;51.542;7.230;2023-01-29T13:02:36;6.20;99.90
11497;DHT22;5805;51.542;7.230;2023-01-29T13:05:12;6.10;99.90
11497;DHT22;5805;51.542;7.230;2023-01-29T13:07:44;6.10;99.90
11497;DHT22;5805;51.542;7.230;2023-01-29T13:10:13;6.20;99.90
11497;DHT22;5805;51.542;7.230;2023-01-29T13:12:50;6.80;99.90
11497;DHT22;5805;51.542;7.230;2023-01-29T13:15:21;6.20;99.90
11497;DHT22;5805;51.542;7.230;2023-01-29T13:17:50;6.10;99.90
11497;DHT22;5805;51.542;7.230;2023-01-29T13:20:22;6.30;99.90
11497;DHT22;5805;51.542;7.230;2023-01-29T13:22:49;6.20;99.90
11497;DHT22;5805;51.542;7.230;2023-01-29T13:25:17;6.10;99.90
11497;DHT22;5805;51.542;7.230;2023-01-29T13:27:46;6.10;99.90
11497;DHT22;5805;51.542;7.230;2023-01-29T13:30:27;6.10;99.90
11497;DHT22;5805;51.542;7.230;2023-01-29T13:32:53;6.00;99.90
11497;DHT22;5805;51.542;7.230;2023-01-29T13:35:21;6.90;99.90
11497;DHT22;5805;51.542;7.230;2023-01-29T13:37:49;6.20;99.90
11497;DHT22;5805;51.542;7.230;2023-01-29T13:40:23;6.00;99.90
11497;DHT22;5805;51.542;7.230;2023-01-29T13:42:52;5.90;99.90
11497;DHT22;5805;51.542;7.230;2023-01-29T13:45:20;5.90;99.90
11497;DHT22;5805;51.542;7.230;2023-01-29T13:47:47;5.90;99.90
11497;DHT22;5805;51.542;7.230;2023-01-29T13:50:18;6.30;99.90
11497;DHT22;5805;51.542;7.230;2023-01-29T13:52:52;5.80;99.90
11497;DHT22;5805;51.542;7.230;2023-01-29T13:55:22;5.80;99.90
11497;DHT22;5805;51.542;7.230;2023-01-29T13:57:52;5.80;99.90
11497;DHT22;5805;51.542;7.230;2023-01-29T14:03:50;5.80;99.90
11497;DHT22;5805;51.542;7.230;2023-01-29T14:06:35;5.70;99.90
11497;DHT22;5805;51.542;7.230;2023-01-29T14:09:02;5.70;99.90
11497;DHT22;5805;51.542;7.230;2023-01-29T14:11:35;5.60;99.90
11497;DHT22;5805;51.542;7.230;2023-01-29T14:17:07;5.50;99.90
11497;DHT22;5805;51.542;7.230;2023-01-29T14:19:33;5.50;99.90
11497;DHT22;5805;51.542;7.230;2023-01-29T14:21:59;5.50;99.90
11497;DHT22;5805;51.542;7.230;2023-01-29T14:24:28;5.50;99.90
11497;DHT22;5805;51.542;7.230;2023-01-29T14:26:55;7.20;99.90
11497;DHT22;5805;51.542;7.230;2023-01-29T14:29:23;5.50;99.90
11497;DHT22;5805;51.542;7.230;2023-01-29T14:31:53;5.70;99.90
11497;DHT22;5805;51.542;7.230;2023-01-29T14:34:24;5.50;99.90
11497;DHT22;5805;51.542;7.230;2023-01-29T14:36:53;5.50;99.90
11497;DHT22;5805;51.542;7.230;2023-01-29T14:39:34;6.20;99.90
11497;DHT22;5805;51.542;7.230;2023-01-29T14:42:03;5.40;99.90
11497;DHT22;5805;51.542;7.230;2023-01-29T14:44:56;5.40;99.90
11497;DHT22;5805;51.542;7.230;2023-01-29T14:53:53;5.30;99.90
11497;DHT22;5805;51.542;7.230;2023-01-29T14:56:27;5.30;99.90
11497;DHT22;5805;51.542;7.230;2023-01-29T14:58:57;5.40;99.90
11497;DHT22;5805;51.542;7.230;2023-01-29T15:01:30;5.70;99.90
11497;DHT22;5805;51.542;7.230;2023-01-29T15:04:02;5.30;99.90
11497;DHT22;5805;51.542;7.230;2023-01-29T15:06:33;5.40;99.90
11497;DHT22;5805;51.542;7.230;2023-01-29T15:09:09;5.40;99.90
11497;DHT22;5805;51.542;7.230;2023-01-29T15:11:43;5.40;99.90
11497;DHT22;5805;51.542;7.230;2023-01-29T15:14:16;5.40;99.90
11497;DHT22;5805;51.542;7.230;2023-01-29T15:16:52;5.40;99.90
11497;DHT22;5805;51.542;7.230;2023-01-29T15:19:24;5.60;99.90
11497;DHT22;5805;51.542;7.230;2023-01-29T15:22:05;5.40;99.90
11497;DHT22;5805;51.542;7.230;2023-01-29T15:24:32;5.30;99.90
11497;DHT22;5805;51.542;7.230;2023-01-29T15:26:57;5.30;99.90
11497;DHT22;5805;51.542;7.230;2023-01-29T15:29:25;5.30;99.90
11497;DHT22;5805;51.542;7.230;2023-01-29T15:31:51;5.30;99.90
11497;DHT22;5805;51.542;7.230;2023-01-29T15:34:17;5.20;99.90
11497;DHT22;5805;51.542;7.230;2023-01-29T15:36:49;5.30;99.90
11497;DHT22;5805;51.542;7.230;2023-01-29T15:39:16;5.30;99.90
11497;DHT22;5805;51.542;7.230;2023-01-29T15:41:45;5.30;99.90
11497;DHT22;5805;51.542;7.230;2023-01-29T15:44:13;6.00;99.90
11497;DHT22;5805;51.542;7.230;2023-01-29T15:46:39;5.30;99.90
11497;DHT22;5805;51.542;7.230;2023-01-29T15:49:07;5.30;99.90
11497;DHT22;5805;51.542;7.230;2023-01-29T15:51:33;5.60;99.90
11497;DHT22;5805;51.542;7.230;2023-01-29T15:54:02;6.00;99.90
11497;DHT22;5805;51.542;7.230;2023-01-29T15:56:31;5.30;99.90
11497;DHT22;5805;51.542;7.230;2023-01-29T15:59:01;5.90;99.90
11497;DHT22;5805;51.542;7.230;2023-01-29T16:01:28;5.30;99.90
11497;DHT22;5805;51.542;7.230;2023-01-29T16:03:54;5.30;99.90
11497;DHT22;5805;51.542;7.230;2023-01-29T16:06:22;5.30;99.90
11497;DHT22;5805;51.542;7.230;2023-01-29T16:08:51;5.20;99.90
11497;DHT22;5805;51.542;7.230;2023-01-29T16:11:18;5.30;99.90
11497;DHT22;5805;51.542;7.230;2023-01-29T16:13:47;5.30;99.90
11497;DHT22;5805;51.542;7.230;2023-01-29T16:16:22;5.30;99.90
11497;DHT22;5805;51.542;7.230;2023-01-29T16:18:48;5.40;99.90
11497;DHT22;5805;51.542;7.230;2023-01-29T16:21:16;5.30;99.90
11497;DHT22;5805;51.542;7.230;2023-01-29T16:23:48;6.60;99.90
11497;DHT22;5805;51.542;7.230;2023-01-29T16:26:17;5.10;99.90
11497;DHT22;5805;51.542;7.230;2023-01-29T16:28:45;5.10;99.90
11497;DHT22;5805;51.542;7.230;2023-01-29T16:31:12;5.10;99.90
11497;DHT22;5805;51.542;7.230;2023-01-29T16:33:46;5.00;99.90